Hauptseite
METAR-TAF:

METAR-TAF

Flughäfen :

Arnheim, Niederlande

Militärflugplatz Deelen

Breite: 52-04N, Länge: 005-53E, Höhe: 48 m

Beobachtung

Neuester Wetterbericht von vor 56 Minuten, um 13:55 UTC
Wind 8 kt aus Süd/Südwest, variierte zwischen Südost und Südwest
Temperatur 17°C
Luftfeuchtigkeit 63%
Luftdruck 1019 hPa
Sichtweite 10 km oder mehr
Leicht bewölkt in der Höhe von 3500 ft

METAR: EHDL 201355Z AUTO 20008KT 140V230 9999 FEW035 17/10 Q1019 BLU

Zeit: 16:51 (14:51 UTC)

Prognose

Neuester Wetterbericht von vor 2 Stunden und 43 Minuten, um 12:08 UTC
Gültige Prognose vom 20 um 13 UTC bis 21 um 01 UTC
Wind 5 kt aus Süd/Südwest
Sichtweite 10 km oder mehr
Aufgelockert bewölkt in der Höhe von 3000 ft
Durchbrochene Bewölkung in der Höhe von 4500 ft

TAF: EHDL 201208Z 2013/2101 21005KT 9999 SCT030 BKN045

Wetterbeobachtungen und Prognosen von mehr als 4000 Flughäfen (METAR und TAF Bericht).

Die verfügbaren Stationen werden durch gelbe und rote Markierungen auf der Karte dargestellt.

Führen Sie die Maus auf sie, um den Namen der Station zu sehen.

Darauf klicken, um die Beobachtung von Wetterbeobachtungen und Prognosen zu sehen.

Um die Karte zu ändern : klicken Sie auf den grünen Tasten mit einem schwarzen Kreuz Zum Vergrößern, auf den grünen Button mit einem Gedankenstrich zu verkleinern, oder auf die grünen Pfeile für benachbarte Karten.


METAR-TAF: